createdAt,value
2022-12-20T00:00:08.160Z,100579.11
2022-12-20T00:02:50.905Z,100579.43
2022-12-20T00:05:19.882Z,100578.55
2022-12-20T00:07:48.874Z,100577.85
2022-12-20T00:10:19.658Z,100568.21
2022-12-20T00:12:49.255Z,100566.84
2022-12-20T00:15:18.252Z,100566.98
2022-12-20T00:18:01.125Z,100561.98
2022-12-20T00:20:43.892Z,100551.66
2022-12-20T00:23:12.633Z,100546.31
2022-12-20T00:25:41.912Z,100541.48
2022-12-20T00:28:11.309Z,100541.46
2022-12-20T00:30:40.598Z,100543.52
2022-12-20T00:33:10.630Z,100537.48
2022-12-20T00:35:43.640Z,100538.67
2022-12-20T00:38:12.682Z,100539.53
2022-12-20T00:40:42.105Z,100537.27
2022-12-20T00:43:11.745Z,100531.25
2022-12-20T00:45:41.239Z,100537.95
2022-12-20T00:48:10.060Z,100535.02
2022-12-20T00:50:39.070Z,100527.09
2022-12-20T00:53:10.215Z,100526.90
2022-12-20T00:55:47.000Z,100530.52
2022-12-20T00:58:16.217Z,100524.31
2022-12-20T01:00:58.902Z,100526.03
2022-12-20T01:03:28.983Z,100528.61
2022-12-20T01:06:01.285Z,100522.41
2022-12-20T01:08:31.488Z,100529.45
2022-12-20T01:11:36.111Z,100523.77
2022-12-20T01:14:08.941Z,100520.49
2022-12-20T01:16:51.390Z,100517.73
2022-12-20T01:19:20.405Z,100513.76
2022-12-20T01:21:49.759Z,100509.78
2022-12-20T01:24:21.009Z,100514.08
2022-12-20T01:26:50.218Z,100514.05
2022-12-20T01:29:34.500Z,100519.90
2022-12-20T01:32:17.525Z,100517.98
2022-12-20T01:34:47.179Z,100524.87
2022-12-20T01:37:30.337Z,100520.72
2022-12-20T01:39:59.695Z,100523.65
2022-12-20T01:42:42.536Z,100525.00
2022-12-20T01:45:30.531Z,100513.62
2022-12-20T01:48:00.651Z,100503.10
2022-12-20T01:50:29.816Z,100504.82
2022-12-20T01:53:00.709Z,100496.05
2022-12-20T01:55:30.120Z,100490.69
2022-12-20T01:58:15.052Z,100493.10
2022-12-20T02:00:45.107Z,100493.92
2022-12-20T02:03:33.160Z,100482.54
2022-12-20T02:06:22.909Z,100481.64
2022-12-20T02:09:07.314Z,100481.98
2022-12-20T02:11:58.510Z,100487.98
2022-12-20T02:15:01.477Z,100491.23
2022-12-20T02:17:45.749Z,100494.85
2022-12-20T02:20:47.723Z,100478.14
2022-12-20T02:23:49.556Z,100469.52
2022-12-20T02:26:56.726Z,100459.01
2022-12-20T02:29:31.092Z,100465.72
2022-12-20T02:32:01.162Z,100451.77
2022-12-20T02:34:33.490Z,100446.42
2022-12-20T02:37:02.659Z,100440.05
2022-12-20T02:39:34.430Z,100434.88
2022-12-20T02:42:11.393Z,100441.23
2022-12-20T02:45:18.791Z,100437.42
2022-12-20T02:48:09.461Z,100439.11
2022-12-20T02:50:46.501Z,100449.42
2022-12-20T02:53:30.211Z,100448.36
2022-12-20T02:56:35.077Z,100459.71
2022-12-20T02:59:26.325Z,100482.77
2022-12-20T03:01:56.666Z,100480.35
2022-12-20T03:04:29.399Z,100474.83
2022-12-20T03:07:02.063Z,100481.88
2022-12-20T03:09:46.197Z,100476.86
2022-12-20T03:12:16.967Z,100476.69
2022-12-20T03:14:46.461Z,100469.61
2022-12-20T03:17:16.327Z,100473.92
2022-12-20T03:19:45.683Z,100465.45
2022-12-20T03:22:28.067Z,100458.68
2022-12-20T03:24:57.165Z,100460.20
2022-12-20T03:27:30.778Z,100454.64
2022-12-20T03:30:01.002Z,100434.44
2022-12-20T03:32:32.631Z,100429.91
2022-12-20T03:35:01.969Z,100423.69
2022-12-20T03:37:48.846Z,100427.95
2022-12-20T03:40:17.974Z,100427.05
2022-12-20T03:42:47.153Z,100423.92
2022-12-20T03:45:16.718Z,100423.90
2022-12-20T03:47:59.601Z,100418.39
2022-12-20T03:50:29.916Z,100424.95
2022-12-20T03:52:58.896Z,100423.89
2022-12-20T03:55:45.292Z,100420.61
2022-12-20T03:58:15.413Z,100411.13
2022-12-20T04:00:58.227Z,100402.52
2022-12-20T04:03:56.163Z,100408.38
2022-12-20T04:06:25.428Z,100421.30
2022-12-20T04:09:08.244Z,100423.37
2022-12-20T04:11:56.270Z,100440.95
2022-12-20T04:14:25.774Z,100442.33
2022-12-20T04:16:54.704Z,100435.08
2022-12-20T04:19:24.881Z,100439.91
2022-12-20T04:22:00.828Z,100427.33
2022-12-20T04:24:41.039Z,100404.41
2022-12-20T04:27:20.838Z,100399.27
2022-12-20T04:29:51.100Z,100395.48
2022-12-20T04:32:21.083Z,100403.23
2022-12-20T04:35:05.366Z,100406.17
2022-12-20T04:37:39.568Z,100403.41
2022-12-20T04:40:23.358Z,100396.18
2022-12-20T04:43:10.686Z,100401.17
2022-12-20T04:45:39.599Z,100399.27
2022-12-20T04:51:29.112Z,100397.89
2022-12-20T04:53:58.275Z,100385.31
2022-12-20T04:56:47.800Z,100387.39
2022-12-20T04:59:21.926Z,100389.11
2022-12-20T05:01:53.553Z,100392.56
2022-12-20T05:04:41.341Z,100404.97
2022-12-20T05:07:10.701Z,100396.87
2022-12-20T05:09:40.936Z,100392.39
2022-12-20T05:12:23.366Z,100397.89
2022-12-20T05:14:52.944Z,100399.09
2022-12-20T05:17:23.231Z,100405.80
2022-12-20T05:20:07.803Z,100406.14
2022-12-20T05:23:08.692Z,100408.01
2022-12-20T05:26:08.877Z,100408.17
2022-12-20T05:28:38.641Z,100405.02
2022-12-20T05:31:08.286Z,100403.64
2022-12-20T05:33:37.559Z,100403.80
2022-12-20T05:36:07.081Z,100402.57
2022-12-20T05:38:36.218Z,100406.01
2022-12-20T05:41:20.687Z,100411.33
2022-12-20T05:44:05.855Z,100412.70
2022-12-20T05:46:49.561Z,100413.35
2022-12-20T05:49:22.656Z,100407.83
2022-12-20T05:51:51.961Z,100404.86
2022-12-20T05:54:26.694Z,100413.31
2022-12-20T05:57:04.208Z,100410.89
2022-12-20T05:59:36.876Z,100406.05
2022-12-20T06:02:07.646Z,100405.69
2022-12-20T06:04:38.552Z,100396.04
2022-12-20T06:07:14.623Z,100393.96
2022-12-20T06:09:45.349Z,100395.86
2022-12-20T06:12:16.963Z,100406.19
2022-12-20T06:14:47.331Z,100400.30
2022-12-20T06:17:16.714Z,100400.14
2022-12-20T06:19:46.211Z,100404.79
2022-12-20T06:22:17.793Z,100407.02
2022-12-20T06:24:50.633Z,100414.41
2022-12-20T06:27:37.261Z,100418.20
2022-12-20T06:30:11.189Z,100410.77
2022-12-20T06:33:08.092Z,100407.83
2022-12-20T06:35:36.864Z,100405.56
2022-12-20T06:38:06.894Z,100415.73
2022-12-20T06:40:37.770Z,100415.23
2022-12-20T06:43:07.089Z,100413.84
2022-12-20T06:45:49.809Z,100415.90
2022-12-20T06:48:32.719Z,100413.49
2022-12-20T06:51:01.491Z,100407.80
2022-12-20T06:53:30.370Z,100415.55
2022-12-20T06:56:12.893Z,100423.31
2022-12-20T06:58:41.631Z,100428.49
2022-12-20T07:01:10.565Z,100429.17
2022-12-20T07:03:53.341Z,100430.02
2022-12-20T07:06:22.369Z,100427.42
2022-12-20T07:08:51.597Z,100429.84
2022-12-20T07:11:20.380Z,100426.05
2022-12-20T07:14:02.995Z,100433.11
2022-12-20T07:16:32.906Z,100435.18
2022-12-20T07:19:02.400Z,100431.73
2022-12-20T07:21:44.875Z,100439.67
2022-12-20T07:24:13.715Z,100442.60
2022-12-20T07:26:45.071Z,100441.73
2022-12-20T07:29:15.906Z,100445.53
2022-12-20T07:31:45.681Z,100441.91
2022-12-20T07:34:14.759Z,100443.13
2022-12-20T07:36:44.240Z,100446.76
2022-12-20T07:39:26.696Z,100444.02
2022-12-20T07:42:13.194Z,100442.98
2022-12-20T07:44:58.597Z,100438.50
2022-12-20T07:47:27.818Z,100441.61
2022-12-20T07:49:57.646Z,100448.67
2022-12-20T07:52:29.774Z,100452.62
2022-12-20T07:55:03.321Z,100451.39
2022-12-20T07:57:45.185Z,100452.42
2022-12-20T08:00:15.488Z,100448.25
2022-12-20T08:03:07.279Z,100454.95
2022-12-20T08:05:54.159Z,100457.16
2022-12-20T08:08:41.364Z,100445.93
2022-12-20T08:11:11.199Z,100440.92
2022-12-20T08:13:46.196Z,100439.37
2022-12-20T08:16:16.059Z,100437.27
2022-12-20T08:18:45.157Z,100434.65
2022-12-20T08:21:15.199Z,100435.48
2022-12-20T08:23:44.355Z,100446.15
2022-12-20T08:26:27.362Z,100444.92
2022-12-20T08:28:56.455Z,100439.91
2022-12-20T08:31:45.841Z,100439.88
2022-12-20T08:34:32.098Z,100434.51
2022-12-20T08:37:01.165Z,100430.34
2022-12-20T08:39:43.490Z,100430.83
2022-12-20T08:42:26.137Z,100422.52
2022-12-20T08:45:09.172Z,100423.70
2022-12-20T08:47:38.111Z,100421.27
2022-12-20T08:50:10.417Z,100420.73
2022-12-20T08:52:43.819Z,100426.05
2022-12-20T08:55:13.249Z,100424.14
2022-12-20T08:57:43.426Z,100419.97
2022-12-20T09:00:25.779Z,100422.90
2022-12-20T09:03:10.334Z,100423.74
2022-12-20T09:05:53.353Z,100432.15
2022-12-20T09:08:22.412Z,100422.64
2022-12-20T09:11:04.796Z,100427.08
2022-12-20T09:13:39.485Z,100437.04
2022-12-20T09:16:14.157Z,100438.58
2022-12-20T09:18:43.780Z,100437.16
2022-12-20T09:21:13.039Z,100441.61
2022-12-20T09:23:57.139Z,100437.98
2022-12-20T09:26:27.042Z,100437.78
2022-12-20T09:29:09.298Z,100436.73
2022-12-20T09:31:51.505Z,100437.75
2022-12-20T09:34:34.074Z,100435.64
2022-12-20T09:37:02.673Z,100432.48
2022-12-20T09:39:31.453Z,100430.52
2022-12-20T09:42:00.083Z,100436.27
2022-12-20T09:44:39.401Z,100445.48
2022-12-20T09:47:24.646Z,100435.21
2022-12-20T09:49:57.697Z,100428.23
2022-12-20T09:52:29.513Z,100428.55
2022-12-20T09:55:40.151Z,100430.57
2022-12-20T09:58:38.124Z,100429.11
2022-12-20T10:01:25.558Z,100428.16
2022-12-20T10:03:57.102Z,100423.11
2022-12-20T10:07:01.483Z,100406.84
2022-12-20T10:09:30.326Z,100392.25
2022-12-20T10:12:32.168Z,100386.80
2022-12-20T10:15:19.761Z,100381.20
2022-12-20T10:18:10.872Z,100374.16
2022-12-20T10:21:03.232Z,100364.04
2022-12-20T10:23:45.873Z,100370.51
2022-12-20T10:26:14.597Z,100374.58
2022-12-20T10:28:44.455Z,100377.80
2022-12-20T10:31:17.512Z,100378.29
2022-12-20T10:33:47.110Z,100366.16
2022-12-20T10:36:33.531Z,100367.50
2022-12-20T10:39:15.836Z,100355.13
2022-12-20T10:41:58.056Z,100351.25
2022-12-20T10:44:30.920Z,100348.60
2022-12-20T10:47:44.729Z,100348.92
2022-12-20T10:50:13.344Z,100349.10
2022-12-20T10:52:43.519Z,100348.98
2022-12-20T10:55:36.283Z,100355.15
2022-12-20T10:58:43.564Z,100363.33
2022-12-20T11:01:20.299Z,100365.45
2022-12-20T11:04:00.570Z,100365.82
2022-12-20T11:06:38.554Z,100366.83
2022-12-20T11:09:36.199Z,100363.52
2022-12-20T11:12:17.314Z,100357.96
2022-12-20T11:14:47.269Z,100356.67
2022-12-20T11:17:29.827Z,100353.16
2022-12-20T11:20:35.943Z,100346.17
2022-12-20T11:23:26.372Z,100351.16
2022-12-20T11:26:25.661Z,100350.23
2022-12-20T11:29:11.284Z,100351.39
2022-12-20T11:31:47.653Z,100344.48
2022-12-20T11:34:40.534Z,100343.79
2022-12-20T11:37:20.633Z,100346.20
2022-12-20T11:40:19.149Z,100337.58
2022-12-20T11:43:27.407Z,100340.31
2022-12-20T11:46:24.361Z,100344.06
2022-12-20T11:49:15.716Z,100342.61
2022-12-20T11:52:00.478Z,100335.84
2022-12-20T11:54:50.284Z,100329.72
2022-12-20T11:58:09.062Z,100342.84
2022-12-20T12:00:46.517Z,100348.73
2022-12-20T12:03:18.693Z,100348.77
2022-12-20T12:06:01.705Z,100345.66
2022-12-20T12:08:45.642Z,100351.85
2022-12-20T12:12:05.729Z,100355.11
2022-12-20T12:14:58.828Z,100351.98
2022-12-20T12:17:38.530Z,100345.86
2022-12-20T12:20:41.517Z,100338.23
2022-12-20T12:23:36.164Z,100329.92
2022-12-20T12:26:12.677Z,100320.91
2022-12-20T12:28:41.513Z,100316.71
2022-12-20T12:31:17.246Z,100318.42
2022-12-20T12:34:09.883Z,100320.11
2022-12-20T12:36:52.412Z,100311.27
2022-12-20T12:39:40.945Z,100323.65
2022-12-20T12:42:49.269Z,100336.55
2022-12-20T12:45:24.495Z,100334.93
2022-12-20T12:48:01.920Z,100329.48
2022-12-20T12:50:48.675Z,100324.45
2022-12-20T12:53:37.326Z,100325.48
2022-12-20T12:56:43.317Z,100321.21
2022-12-20T12:59:13.581Z,100318.69
2022-12-20T13:02:04.709Z,100317.36
2022-12-20T13:05:13.032Z,100313.61
2022-12-20T13:07:46.762Z,100317.16
2022-12-20T13:10:15.548Z,100317.05
2022-12-20T13:12:49.035Z,100317.77
2022-12-20T13:15:33.309Z,100316.70
2022-12-20T13:18:22.080Z,100313.60
2022-12-20T13:21:30.119Z,100314.61
2022-12-20T13:24:17.794Z,100317.85
2022-12-20T13:26:54.118Z,100317.63
2022-12-20T13:29:26.927Z,100316.30
2022-12-20T13:31:56.475Z,100308.88
2022-12-20T13:34:55.189Z,100312.20
2022-12-20T13:37:59.669Z,100314.86
2022-12-20T13:40:43.970Z,100327.86
2022-12-20T13:43:46.653Z,100321.83
2022-12-20T13:46:24.977Z,100316.87
2022-12-20T13:49:03.830Z,100319.39
2022-12-20T13:51:33.014Z,100316.64
2022-12-20T13:54:08.128Z,100322.36
2022-12-20T13:56:56.648Z,100325.33
2022-12-20T13:59:35.502Z,100322.60
2022-12-20T14:02:13.012Z,100317.48
2022-12-20T14:04:46.425Z,100314.75
2022-12-20T14:07:18.442Z,100314.97
2022-12-20T14:09:54.960Z,100311.70
2022-12-20T14:12:37.293Z,100307.57
2022-12-20T14:15:25.947Z,100305.52
2022-12-20T14:17:55.308Z,100303.86
2022-12-20T14:20:29.787Z,100300.10
2022-12-20T14:23:16.967Z,100289.78
2022-12-20T14:26:02.353Z,100299.70
2022-12-20T14:28:50.772Z,100296.83
2022-12-20T14:31:32.713Z,100296.16
2022-12-20T14:34:41.303Z,100293.58
2022-12-20T14:37:34.112Z,100287.06
2022-12-20T14:40:18.034Z,100283.65
2022-12-20T14:42:47.915Z,100284.73
2022-12-20T14:45:21.494Z,100283.19
2022-12-20T14:48:07.369Z,100278.73
2022-12-20T14:50:41.263Z,100278.09
2022-12-20T14:53:29.033Z,100276.60
2022-12-20T14:55:58.939Z,100273.87
2022-12-20T14:58:41.647Z,100275.27
2022-12-20T15:01:27.984Z,100274.23
2022-12-20T15:04:30.820Z,100271.50
2022-12-20T15:07:41.852Z,100265.47
2022-12-20T15:10:10.488Z,100263.95
2022-12-20T15:12:42.438Z,100258.08
2022-12-20T15:15:29.279Z,100251.04
2022-12-20T15:17:58.981Z,100253.83
2022-12-20T15:20:28.371Z,100254.90
2022-12-20T15:22:57.679Z,100258.55
2022-12-20T15:25:43.294Z,100261.66
2022-12-20T15:28:26.063Z,100267.77
2022-12-20T15:30:55.765Z,100274.73
2022-12-20T15:33:40.853Z,100270.42
2022-12-20T15:36:28.347Z,100265.45
2022-12-20T15:39:15.298Z,100261.33
2022-12-20T15:41:48.925Z,100254.30
2022-12-20T15:44:25.825Z,100248.29
2022-12-20T15:46:55.336Z,100244.71
2022-12-20T15:49:28.313Z,100250.62
2022-12-20T15:52:19.990Z,100254.44
2022-12-20T15:55:02.611Z,100248.08
2022-12-20T15:57:45.227Z,100231.88
2022-12-20T16:00:27.608Z,100227.58
2022-12-20T16:03:20.811Z,100233.64
2022-12-20T16:05:54.704Z,100241.78
2022-12-20T16:08:24.006Z,100239.52
2022-12-20T16:10:53.207Z,100250.73
2022-12-20T16:13:35.915Z,100252.33
2022-12-20T16:16:06.011Z,100240.59
2022-12-20T16:18:35.084Z,100236.95
2022-12-20T16:21:04.140Z,100228.34
2022-12-20T16:23:33.311Z,100234.23
2022-12-20T16:26:02.663Z,100235.27
2022-12-20T16:28:45.665Z,100230.24
2022-12-20T16:31:45.035Z,100225.23
2022-12-20T16:34:16.266Z,100215.38
2022-12-20T16:36:58.470Z,100205.36
2022-12-20T16:39:26.952Z,100211.23
2022-12-20T16:41:55.971Z,100211.43
2022-12-20T16:44:25.086Z,100214.91
2022-12-20T16:46:54.031Z,100226.66
2022-12-20T16:49:22.855Z,100221.48
2022-12-20T16:51:51.631Z,100222.34
2022-12-20T16:54:34.297Z,100221.61
2022-12-20T16:57:03.366Z,100228.02
2022-12-20T16:59:32.342Z,100243.05
2022-12-20T17:02:02.036Z,100245.98
2022-12-20T17:04:32.183Z,100248.02
2022-12-20T17:07:14.683Z,100236.27
2022-12-20T17:12:45.738Z,100236.94
2022-12-20T17:15:32.390Z,100221.38
2022-12-20T17:18:15.042Z,100214.80
2022-12-20T17:20:43.749Z,100215.30
2022-12-20T17:26:02.825Z,100227.35
2022-12-20T17:28:31.826Z,100229.75
2022-12-20T17:31:07.581Z,100226.63
2022-12-20T17:33:36.718Z,100224.52
2022-12-20T17:36:05.925Z,100224.85
2022-12-20T17:38:51.132Z,100209.14
2022-12-20T17:41:34.442Z,100217.09
2022-12-20T17:44:05.060Z,100214.70
2022-12-20T17:46:48.374Z,100212.66
2022-12-20T17:49:31.565Z,100210.63
2022-12-20T17:52:00.435Z,100210.33
2022-12-20T17:54:36.847Z,100203.11
2022-12-20T17:57:22.719Z,100197.63
2022-12-20T18:00:05.821Z,100201.11
2022-12-20T18:02:48.390Z,100196.62
2022-12-20T18:05:17.721Z,100194.71
2022-12-20T18:07:54.713Z,100192.28
2022-12-20T18:10:23.955Z,100196.03
2022-12-20T18:12:52.958Z,100187.36
2022-12-20T18:15:22.881Z,100180.41
2022-12-20T18:18:08.139Z,100175.20
2022-12-20T18:20:38.239Z,100179.46
2022-12-20T18:23:07.360Z,100177.87
2022-12-20T18:25:49.860Z,100176.77
2022-12-20T18:28:32.477Z,100167.91
2022-12-20T18:31:03.000Z,100169.58
2022-12-20T18:33:31.886Z,100168.37
2022-12-20T18:36:21.131Z,100164.34
2022-12-20T18:39:07.179Z,100173.98
2022-12-20T18:41:36.082Z,100168.95
2022-12-20T18:44:18.463Z,100173.92
2022-12-20T18:46:47.088Z,100171.82
2022-12-20T18:49:16.013Z,100162.65
2022-12-20T18:51:45.424Z,100159.19
2022-12-20T18:54:15.475Z,100152.27
2022-12-20T18:56:59.063Z,100146.57
2022-12-20T18:59:28.274Z,100147.77
2022-12-20T19:01:57.658Z,100150.52
2022-12-20T19:04:26.432Z,100147.90
2022-12-20T19:06:55.091Z,100147.39
2022-12-20T19:09:23.980Z,100148.42
2022-12-20T19:11:56.997Z,100151.35
2022-12-20T19:14:27.116Z,100143.40
2022-12-20T19:16:55.975Z,100142.36
2022-12-20T19:19:24.716Z,100143.92
2022-12-20T19:21:53.137Z,100147.20
2022-12-20T19:24:21.571Z,100144.07
2022-12-20T19:26:50.501Z,100140.27
2022-12-20T19:29:18.970Z,100134.77
2022-12-20T19:31:47.975Z,100142.54
2022-12-20T19:34:16.883Z,100140.46
2022-12-20T19:36:48.601Z,100140.63
2022-12-20T19:39:22.654Z,100137.35
2022-12-20T19:42:22.376Z,100141.45
2022-12-20T19:44:41.276Z,100141.29
2022-12-20T19:47:09.772Z,100133.90
2022-12-20T19:49:38.289Z,100130.09
2022-12-20T19:52:07.875Z,100129.22
2022-12-20T19:54:36.597Z,100126.64
2022-12-20T19:57:19.022Z,100122.85
2022-12-20T19:59:52.187Z,100120.80
2022-12-20T20:02:24.147Z,100125.61
2022-12-20T20:04:52.858Z,100120.63
2022-12-20T20:07:22.576Z,100117.15
2022-12-20T20:09:52.235Z,100117.16
2022-12-20T20:12:21.319Z,100119.06
2022-12-20T20:14:49.864Z,100122.73
2022-12-20T20:17:18.268Z,100125.61
2022-12-20T20:19:52.047Z,100121.80
2022-12-20T20:22:23.188Z,100121.29
2022-12-20T20:24:52.274Z,100116.65
2022-12-20T20:27:20.849Z,100116.52
2022-12-20T20:29:50.515Z,100117.23
2022-12-20T20:32:19.106Z,100116.70
2022-12-20T20:34:47.904Z,100115.65
2022-12-20T20:37:30.265Z,100118.08
2022-12-20T20:39:58.641Z,100120.86
2022-12-20T20:42:27.668Z,100126.39
2022-12-20T20:44:56.289Z,100127.95
2022-12-20T20:47:24.882Z,100133.14
2022-12-20T20:49:53.339Z,100127.98
2022-12-20T20:52:21.990Z,100133.35
2022-12-20T20:54:50.509Z,100133.52
2022-12-20T20:57:19.113Z,100138.34
2022-12-20T20:59:47.848Z,100141.25
2022-12-20T21:02:16.750Z,100136.23
2022-12-20T21:05:07.143Z,100128.45
2022-12-20T21:07:34.161Z,100120.69
2022-12-20T21:10:03.408Z,100115.37
2022-12-20T21:12:45.688Z,100119.01
2022-12-20T21:15:24.519Z,100118.48
2022-12-20T21:18:06.995Z,100114.33
2022-12-20T21:20:37.299Z,100116.58
2022-12-20T21:23:19.465Z,100113.98
2022-12-20T21:25:58.221Z,100108.77
2022-12-20T21:28:44.081Z,100104.45
2022-12-20T21:31:15.226Z,100109.81
2022-12-20T21:33:45.951Z,100111.69
2022-12-20T21:36:28.201Z,100113.76
2022-12-20T21:38:58.517Z,100112.55
2022-12-20T21:41:28.873Z,100114.28
2022-12-20T21:44:01.714Z,100116.19
2022-12-20T21:46:32.346Z,100116.52
2022-12-20T21:49:15.073Z,100111.52
2022-12-20T21:51:44.179Z,100106.33
2022-12-20T21:54:26.788Z,100104.09
2022-12-20T21:56:56.668Z,100099.41
2022-12-20T21:59:25.529Z,100098.73
2022-12-20T22:01:55.004Z,100102.70
2022-12-20T22:04:24.473Z,100105.65
2022-12-20T22:06:53.276Z,100102.89
2022-12-20T22:09:22.250Z,100097.69
2022-12-20T22:11:51.055Z,100092.20
2022-12-20T22:14:20.277Z,100092.39
2022-12-20T22:16:49.102Z,100089.29
2022-12-20T22:19:18.169Z,100089.47
2022-12-20T22:21:48.814Z,100095.87
2022-12-20T22:24:21.206Z,100088.61
2022-12-20T22:26:49.934Z,100087.10
2022-12-20T22:29:20.450Z,100073.46
2022-12-20T22:31:50.983Z,100065.86
2022-12-20T22:34:20.556Z,100060.38
2022-12-20T22:36:49.085Z,100061.80
2022-12-20T22:39:31.437Z,100063.53
2022-12-20T22:42:00.433Z,100058.38
2022-12-20T22:44:42.693Z,100047.87
2022-12-20T22:47:24.943Z,100039.09
2022-12-20T22:49:53.579Z,100029.80
2022-12-20T22:52:22.615Z,100018.10
2022-12-20T22:54:51.261Z,100016.05
2022-12-20T22:57:19.879Z,100017.61
2022-12-20T22:59:48.537Z,100025.92
2022-12-20T23:02:17.738Z,100029.35
2022-12-20T23:04:46.683Z,100029.14
2022-12-20T23:07:15.348Z,100023.59
2022-12-20T23:09:57.942Z,100024.81
2022-12-20T23:12:59.576Z,100023.39
2022-12-20T23:15:41.927Z,100023.00
2022-12-20T23:18:24.128Z,100020.59
2022-12-20T23:21:25.745Z,100009.15
2022-12-20T23:24:08.672Z,99993.77
2022-12-20T23:26:51.679Z,99982.02
2022-12-20T23:29:20.785Z,99976.16
2022-12-20T23:31:49.923Z,99966.50
2022-12-20T23:34:32.717Z,99961.67
2022-12-20T23:37:15.429Z,99958.09
2022-12-20T23:39:44.424Z,99961.41
2022-12-20T23:42:13.621Z,99971.82
2022-12-20T23:44:42.432Z,99977.71
2022-12-20T23:47:17.142Z,99973.08
2022-12-20T23:49:48.061Z,99972.41
2022-12-20T23:52:30.581Z,99971.75
2022-12-20T23:54:59.752Z,99970.23
2022-12-20T23:57:32.176Z,99954.88
